sensor_id;sensor_type;location;lat;lon;timestamp;P1;durP1;ratioP1;P2;durP2;ratioP2
58310;SDS011;45001;52.218;5.154;2022-07-18T00:01:41;6.22;;;4.57;;
58310;SDS011;45001;52.218;5.154;2022-07-18T00:04:07;6.22;;;4.47;;
58310;SDS011;45001;52.218;5.154;2022-07-18T00:06:32;7.05;;;4.38;;
58310;SDS011;45001;52.218;5.154;2022-07-18T00:08:57;7.45;;;4.38;;
58310;SDS011;45001;52.218;5.154;2022-07-18T00:11:23;6.95;;;4.78;;
58310;SDS011;45001;52.218;5.154;2022-07-18T00:13:48;6.15;;;4.38;;
58310;SDS011;45001;52.218;5.154;2022-07-18T00:16:16;5.97;;;4.30;;
58310;SDS011;45001;52.218;5.154;2022-07-18T00:18:41;6.43;;;4.40;;
58310;SDS011;45001;52.218;5.154;2022-07-18T00:21:07;7.05;;;4.72;;
58310;SDS011;45001;52.218;5.154;2022-07-18T00:23:32;6.53;;;4.68;;
58310;SDS011;45001;52.218;5.154;2022-07-18T00:25:57;8.95;;;4.70;;
58310;SDS011;45001;52.218;5.154;2022-07-18T00:28:23;6.38;;;4.20;;
58310;SDS011;45001;52.218;5.154;2022-07-18T00:30:48;6.00;;;3.90;;
58310;SDS011;45001;52.218;5.154;2022-07-18T00:33:13;5.35;;;3.85;;
58310;SDS011;45001;52.218;5.154;2022-07-18T00:35:38;7.47;;;4.47;;
58310;SDS011;45001;52.218;5.154;2022-07-18T00:38:04;6.30;;;4.70;;
58310;SDS011;45001;52.218;5.154;2022-07-18T00:40:30;7.22;;;4.47;;
58310;SDS011;45001;52.218;5.154;2022-07-18T00:42:56;6.43;;;4.63;;
58310;SDS011;45001;52.218;5.154;2022-07-18T00:45:22;7.78;;;5.00;;
58310;SDS011;45001;52.218;5.154;2022-07-18T00:47:48;7.57;;;5.22;;
58310;SDS011;45001;52.218;5.154;2022-07-18T00:50:16;6.72;;;5.22;;
58310;SDS011;45001;52.218;5.154;2022-07-18T00:52:43;6.20;;;4.95;;
58310;SDS011;45001;52.218;5.154;2022-07-18T00:55:08;8.82;;;5.20;;
58310;SDS011;45001;52.218;5.154;2022-07-18T00:57:34;7.40;;;5.40;;
58310;SDS011;45001;52.218;5.154;2022-07-18T00:59:59;7.50;;;5.03;;
58310;SDS011;45001;52.218;5.154;2022-07-18T01:02:43;7.05;;;4.85;;
58310;SDS011;45001;52.218;5.154;2022-07-18T01:05:09;5.70;;;4.30;;
58310;SDS011;45001;52.218;5.154;2022-07-18T01:07:35;6.68;;;4.57;;
58310;SDS011;45001;52.218;5.154;2022-07-18T01:10:01;6.30;;;4.55;;
58310;SDS011;45001;52.218;5.154;2022-07-18T01:12:28;7.63;;;4.53;;
58310;SDS011;45001;52.218;5.154;2022-07-18T01:14:53;5.32;;;3.97;;
58310;SDS011;45001;52.218;5.154;2022-07-18T01:17:20;5.65;;;4.32;;
58310;SDS011;45001;52.218;5.154;2022-07-18T01:19:46;7.30;;;4.63;;
58310;SDS011;45001;52.218;5.154;2022-07-18T01:22:13;7.28;;;4.38;;
58310;SDS011;45001;52.218;5.154;2022-07-18T01:24:40;7.63;;;4.60;;
58310;SDS011;45001;52.218;5.154;2022-07-18T01:27:06;5.55;;;4.00;;
58310;SDS011;45001;52.218;5.154;2022-07-18T01:29:31;6.85;;;4.07;;
58310;SDS011;45001;52.218;5.154;2022-07-18T01:32:03;6.75;;;4.43;;
58310;SDS011;45001;52.218;5.154;2022-07-18T01:34:29;6.13;;;4.47;;
58310;SDS011;45001;52.218;5.154;2022-07-18T01:36:54;7.07;;;3.90;;
58310;SDS011;45001;52.218;5.154;2022-07-18T01:39:19;7.38;;;4.38;;
58310;SDS011;45001;52.218;5.154;2022-07-18T01:41:44;6.40;;;3.80;;
58310;SDS011;45001;52.218;5.154;2022-07-18T01:44:10;6.00;;;4.28;;
58310;SDS011;45001;52.218;5.154;2022-07-18T01:46:35;5.60;;;3.67;;
58310;SDS011;45001;52.218;5.154;2022-07-18T01:49:00;7.13;;;4.35;;
58310;SDS011;45001;52.218;5.154;2022-07-18T01:51:26;6.57;;;4.05;;
58310;SDS011;45001;52.218;5.154;2022-07-18T01:53:55;7.38;;;4.15;;
58310;SDS011;45001;52.218;5.154;2022-07-18T01:56:26;5.70;;;3.75;;
58310;SDS011;45001;52.218;5.154;2022-07-18T01:58:52;6.20;;;4.28;;
58310;SDS011;45001;52.218;5.154;2022-07-18T02:01:17;5.40;;;3.92;;
58310;SDS011;45001;52.218;5.154;2022-07-18T02:03:42;5.15;;;3.58;;
58310;SDS011;45001;52.218;5.154;2022-07-18T02:06:08;7.82;;;4.07;;
58310;SDS011;45001;52.218;5.154;2022-07-18T02:08:33;5.15;;;3.55;;
58310;SDS011;45001;52.218;5.154;2022-07-18T02:10:58;6.80;;;4.00;;
58310;SDS011;45001;52.218;5.154;2022-07-18T02:13:23;7.53;;;3.90;;
58310;SDS011;45001;52.218;5.154;2022-07-18T02:15:49;4.65;;;3.38;;
58310;SDS011;45001;52.218;5.154;2022-07-18T02:18:14;6.30;;;3.88;;
58310;SDS011;45001;52.218;5.154;2022-07-18T02:20:40;5.47;;;4.00;;
58310;SDS011;45001;52.218;5.154;2022-07-18T02:23:05;7.93;;;4.03;;
58310;SDS011;45001;52.218;5.154;2022-07-18T02:25:32;5.25;;;3.92;;
58310;SDS011;45001;52.218;5.154;2022-07-18T02:27:59;6.65;;;3.97;;
58310;SDS011;45001;52.218;5.154;2022-07-18T02:30:24;5.68;;;4.00;;
58310;SDS011;45001;52.218;5.154;2022-07-18T02:32:50;5.25;;;3.63;;
58310;SDS011;45001;52.218;5.154;2022-07-18T02:35:15;5.63;;;4.03;;
58310;SDS011;45001;52.218;5.154;2022-07-18T02:37:40;5.80;;;3.80;;
58310;SDS011;45001;52.218;5.154;2022-07-18T02:40:07;4.82;;;3.67;;
58310;SDS011;45001;52.218;5.154;2022-07-18T02:42:33;5.85;;;3.88;;
58310;SDS011;45001;52.218;5.154;2022-07-18T02:44:59;4.75;;;3.75;;
58310;SDS011;45001;52.218;5.154;2022-07-18T02:47:24;5.60;;;3.50;;
58310;SDS011;45001;52.218;5.154;2022-07-18T02:49:49;6.57;;;3.70;;
58310;SDS011;45001;52.218;5.154;2022-07-18T02:52:15;6.50;;;3.60;;
58310;SDS011;45001;52.218;5.154;2022-07-18T02:54:40;8.38;;;3.30;;
58310;SDS011;45001;52.218;5.154;2022-07-18T02:57:06;4.43;;;3.10;;
58310;SDS011;45001;52.218;5.154;2022-07-18T02:59:31;8.40;;;3.72;;
58310;SDS011;45001;52.218;5.154;2022-07-18T03:01:57;6.32;;;4.03;;
58310;SDS011;45001;52.218;5.154;2022-07-18T03:04:22;6.10;;;4.00;;
58310;SDS011;45001;52.218;5.154;2022-07-18T03:06:48;7.78;;;3.50;;
58310;SDS011;45001;52.218;5.154;2022-07-18T03:09:14;6.03;;;3.80;;
58310;SDS011;45001;52.218;5.154;2022-07-18T03:11:40;5.35;;;3.30;;
58310;SDS011;45001;52.218;5.154;2022-07-18T03:14:06;4.85;;;3.28;;
58310;SDS011;45001;52.218;5.154;2022-07-18T03:16:31;6.63;;;3.50;;
58310;SDS011;45001;52.218;5.154;2022-07-18T03:18:56;5.70;;;3.78;;
58310;SDS011;45001;52.218;5.154;2022-07-18T03:21:22;5.10;;;3.30;;
58310;SDS011;45001;52.218;5.154;2022-07-18T03:23:48;5.28;;;3.55;;
58310;SDS011;45001;52.218;5.154;2022-07-18T03:26:13;6.30;;;4.00;;
58310;SDS011;45001;52.218;5.154;2022-07-18T03:28:38;4.55;;;3.13;;
58310;SDS011;45001;52.218;5.154;2022-07-18T03:31:04;4.63;;;3.58;;
58310;SDS011;45001;52.218;5.154;2022-07-18T03:33:29;5.85;;;3.10;;
58310;SDS011;45001;52.218;5.154;2022-07-18T03:35:55;6.82;;;3.50;;
58310;SDS011;45001;52.218;5.154;2022-07-18T03:38:20;5.65;;;3.42;;
58310;SDS011;45001;52.218;5.154;2022-07-18T03:40:46;5.53;;;3.58;;
58310;SDS011;45001;52.218;5.154;2022-07-18T03:43:11;5.45;;;3.45;;
58310;SDS011;45001;52.218;5.154;2022-07-18T03:45:37;4.57;;;3.40;;
58310;SDS011;45001;52.218;5.154;2022-07-18T03:48:02;5.13;;;3.47;;
58310;SDS011;45001;52.218;5.154;2022-07-18T03:50:27;4.20;;;2.63;;
58310;SDS011;45001;52.218;5.154;2022-07-18T03:52:53;7.13;;;3.75;;
58310;SDS011;45001;52.218;5.154;2022-07-18T03:55:18;4.63;;;3.25;;
58310;SDS011;45001;52.218;5.154;2022-07-18T03:57:45;4.30;;;3.20;;
58310;SDS011;45001;52.218;5.154;2022-07-18T04:00:11;4.75;;;3.30;;
58310;SDS011;45001;52.218;5.154;2022-07-18T04:02:41;5.57;;;3.25;;
58310;SDS011;45001;52.218;5.154;2022-07-18T04:05:09;4.93;;;3.00;;
58310;SDS011;45001;52.218;5.154;2022-07-18T04:07:35;5.32;;;3.30;;
58310;SDS011;45001;52.218;5.154;2022-07-18T04:10:01;4.60;;;3.30;;
58310;SDS011;45001;52.218;5.154;2022-07-18T04:12:27;5.00;;;3.15;;
58310;SDS011;45001;52.218;5.154;2022-07-18T04:14:53;4.13;;;3.22;;
58310;SDS011;45001;52.218;5.154;2022-07-18T04:17:18;5.70;;;2.92;;
58310;SDS011;45001;52.218;5.154;2022-07-18T04:19:43;4.32;;;3.15;;
58310;SDS011;45001;52.218;5.154;2022-07-18T04:22:09;4.63;;;3.30;;
58310;SDS011;45001;52.218;5.154;2022-07-18T04:24:34;4.15;;;3.22;;
58310;SDS011;45001;52.218;5.154;2022-07-18T04:26:59;6.80;;;3.30;;
58310;SDS011;45001;52.218;5.154;2022-07-18T04:29:25;5.00;;;3.30;;
58310;SDS011;45001;52.218;5.154;2022-07-18T04:31:50;5.38;;;3.45;;
58310;SDS011;45001;52.218;5.154;2022-07-18T04:34:16;4.45;;;3.20;;
58310;SDS011;45001;52.218;5.154;2022-07-18T04:36:42;4.32;;;3.17;;
58310;SDS011;45001;52.218;5.154;2022-07-18T04:39:07;5.00;;;3.08;;
58310;SDS011;45001;52.218;5.154;2022-07-18T04:41:33;4.28;;;2.92;;
58310;SDS011;45001;52.218;5.154;2022-07-18T04:43:58;5.03;;;3.17;;
58310;SDS011;45001;52.218;5.154;2022-07-18T04:46:23;3.92;;;2.97;;
58310;SDS011;45001;52.218;5.154;2022-07-18T04:48:49;4.90;;;2.88;;
58310;SDS011;45001;52.218;5.154;2022-07-18T04:51:14;5.13;;;2.75;;
58310;SDS011;45001;52.218;5.154;2022-07-18T04:53:39;4.10;;;2.90;;
58310;SDS011;45001;52.218;5.154;2022-07-18T04:56:05;4.03;;;2.72;;
58310;SDS011;45001;52.218;5.154;2022-07-18T04:58:30;4.50;;;2.90;;
58310;SDS011;45001;52.218;5.154;2022-07-18T05:00:55;4.88;;;2.78;;
58310;SDS011;45001;52.218;5.154;2022-07-18T05:03:21;5.05;;;2.92;;
58310;SDS011;45001;52.218;5.154;2022-07-18T05:05:46;4.45;;;2.78;;
58310;SDS011;45001;52.218;5.154;2022-07-18T05:08:12;4.82;;;2.90;;
58310;SDS011;45001;52.218;5.154;2022-07-18T05:10:39;4.70;;;2.80;;
58310;SDS011;45001;52.218;5.154;2022-07-18T05:13:05;4.10;;;2.90;;
58310;SDS011;45001;52.218;5.154;2022-07-18T05:15:30;3.83;;;2.92;;
58310;SDS011;45001;52.218;5.154;2022-07-18T05:17:55;3.47;;;2.70;;
58310;SDS011;45001;52.218;5.154;2022-07-18T05:20:23;5.07;;;2.80;;
58310;SDS011;45001;52.218;5.154;2022-07-18T05:22:49;6.05;;;2.72;;
58310;SDS011;45001;52.218;5.154;2022-07-18T05:25:16;4.53;;;2.40;;
58310;SDS011;45001;52.218;5.154;2022-07-18T05:27:42;4.88;;;2.50;;
58310;SDS011;45001;52.218;5.154;2022-07-18T05:30:08;8.40;;;3.10;;
58310;SDS011;45001;52.218;5.154;2022-07-18T05:32:36;7.35;;;2.95;;
58310;SDS011;45001;52.218;5.154;2022-07-18T05:35:01;4.90;;;2.90;;
58310;SDS011;45001;52.218;5.154;2022-07-18T05:37:27;4.97;;;3.03;;
58310;SDS011;45001;52.218;5.154;2022-07-18T05:39:53;4.18;;;2.47;;
58310;SDS011;45001;52.218;5.154;2022-07-18T05:42:19;4.53;;;2.60;;
58310;SDS011;45001;52.218;5.154;2022-07-18T05:44:45;4.93;;;2.58;;
58310;SDS011;45001;52.218;5.154;2022-07-18T05:47:10;6.07;;;2.50;;
58310;SDS011;45001;52.218;5.154;2022-07-18T05:49:36;5.32;;;2.75;;
58310;SDS011;45001;52.218;5.154;2022-07-18T05:52:02;8.82;;;2.85;;
58310;SDS011;45001;52.218;5.154;2022-07-18T05:54:27;6.35;;;2.47;;
58310;SDS011;45001;52.218;5.154;2022-07-18T05:56:52;3.63;;;2.67;;
58310;SDS011;45001;52.218;5.154;2022-07-18T05:59:18;4.68;;;2.40;;
58310;SDS011;45001;52.218;5.154;2022-07-18T06:01:45;6.72;;;2.53;;
58310;SDS011;45001;52.218;5.154;2022-07-18T06:04:10;5.00;;;2.30;;
58310;SDS011;45001;52.218;5.154;2022-07-18T06:06:36;5.03;;;2.20;;
58310;SDS011;45001;52.218;5.154;2022-07-18T06:09:02;5.70;;;2.47;;
58310;SDS011;45001;52.218;5.154;2022-07-18T06:11:28;4.57;;;2.60;;
58310;SDS011;45001;52.218;5.154;2022-07-18T06:13:53;5.13;;;2.30;;
58310;SDS011;45001;52.218;5.154;2022-07-18T06:16:18;8.73;;;2.45;;
58310;SDS011;45001;52.218;5.154;2022-07-18T06:18:44;4.55;;;2.15;;
58310;SDS011;45001;52.218;5.154;2022-07-18T06:21:09;4.38;;;1.90;;
58310;SDS011;45001;52.218;5.154;2022-07-18T06:23:35;6.78;;;2.10;;
58310;SDS011;45001;52.218;5.154;2022-07-18T06:26:00;3.67;;;2.47;;
58310;SDS011;45001;52.218;5.154;2022-07-18T06:28:26;4.00;;;2.20;;
58310;SDS011;45001;52.218;5.154;2022-07-18T06:30:53;5.07;;;2.20;;
58310;SDS011;45001;52.218;5.154;2022-07-18T06:33:18;8.05;;;2.47;;
58310;SDS011;45001;52.218;5.154;2022-07-18T06:35:43;6.15;;;2.03;;
58310;SDS011;45001;52.218;5.154;2022-07-18T06:38:09;7.57;;;2.40;;
58310;SDS011;45001;52.218;5.154;2022-07-18T06:40:34;3.80;;;2.00;;
58310;SDS011;45001;52.218;5.154;2022-07-18T06:43:00;4.82;;;2.00;;
58310;SDS011;45001;52.218;5.154;2022-07-18T06:45:25;6.05;;;1.90;;
58310;SDS011;45001;52.218;5.154;2022-07-18T06:47:50;4.32;;;1.90;;
58310;SDS011;45001;52.218;5.154;2022-07-18T06:50:16;6.15;;;2.10;;
58310;SDS011;45001;52.218;5.154;2022-07-18T06:52:42;6.30;;;2.58;;
58310;SDS011;45001;52.218;5.154;2022-07-18T06:55:09;5.57;;;2.20;;
58310;SDS011;45001;52.218;5.154;2022-07-18T06:57:35;7.25;;;2.55;;
58310;SDS011;45001;52.218;5.154;2022-07-18T07:00:00;4.20;;;2.42;;
58310;SDS011;45001;52.218;5.154;2022-07-18T07:02:26;5.00;;;2.03;;
58310;SDS011;45001;52.218;5.154;2022-07-18T07:04:51;4.78;;;2.22;;
58310;SDS011;45001;52.218;5.154;2022-07-18T07:07:17;5.85;;;2.00;;
58310;SDS011;45001;52.218;5.154;2022-07-18T07:09:43;3.42;;;1.92;;
58310;SDS011;45001;52.218;5.154;2022-07-18T07:12:08;4.22;;;1.90;;
58310;SDS011;45001;52.218;5.154;2022-07-18T07:14:35;9.07;;;2.10;;
58310;SDS011;45001;52.218;5.154;2022-07-18T07:17:00;3.42;;;1.95;;
58310;SDS011;45001;52.218;5.154;2022-07-18T07:19:26;3.90;;;1.80;;
58310;SDS011;45001;52.218;5.154;2022-07-18T07:21:51;5.97;;;1.80;;
58310;SDS011;45001;52.218;5.154;2022-07-18T07:24:16;5.55;;;1.70;;
58310;SDS011;45001;52.218;5.154;2022-07-18T07:26:42;3.10;;;1.80;;
58310;SDS011;45001;52.218;5.154;2022-07-18T07:29:07;3.33;;;1.97;;
58310;SDS011;45001;52.218;5.154;2022-07-18T07:31:32;4.82;;;2.00;;
58310;SDS011;45001;52.218;5.154;2022-07-18T07:33:57;3.75;;;2.00;;
58310;SDS011;45001;52.218;5.154;2022-07-18T07:36:23;3.72;;;1.60;;
58310;SDS011;45001;52.218;5.154;2022-07-18T07:38:51;3.38;;;1.88;;
58310;SDS011;45001;52.218;5.154;2022-07-18T07:41:16;3.97;;;1.93;;
58310;SDS011;45001;52.218;5.154;2022-07-18T07:43:41;3.42;;;1.73;;
58310;SDS011;45001;52.218;5.154;2022-07-18T07:46:07;4.10;;;1.88;;
58310;SDS011;45001;52.218;5.154;2022-07-18T07:48:32;3.65;;;1.73;;
58310;SDS011;45001;52.218;5.154;2022-07-18T07:50:57;5.88;;;1.80;;
58310;SDS011;45001;52.218;5.154;2022-07-18T07:53:23;3.47;;;1.65;;
58310;SDS011;45001;52.218;5.154;2022-07-18T07:55:48;5.93;;;1.85;;
58310;SDS011;45001;52.218;5.154;2022-07-18T07:58:14;6.10;;;2.45;;
58310;SDS011;45001;52.218;5.154;2022-07-18T08:00:39;5.30;;;2.08;;
58310;SDS011;45001;52.218;5.154;2022-07-18T08:03:06;6.70;;;2.10;;
58310;SDS011;45001;52.218;5.154;2022-07-18T08:05:33;7.03;;;2.03;;
58310;SDS011;45001;52.218;5.154;2022-07-18T08:08:00;4.95;;;2.10;;
58310;SDS011;45001;52.218;5.154;2022-07-18T08:10:26;6.72;;;2.15;;
58310;SDS011;45001;52.218;5.154;2022-07-18T08:12:52;3.83;;;1.70;;
58310;SDS011;45001;52.218;5.154;2022-07-18T08:15:18;4.50;;;1.85;;
58310;SDS011;45001;52.218;5.154;2022-07-18T08:17:43;6.05;;;2.38;;
58310;SDS011;45001;52.218;5.154;2022-07-18T08:20:09;3.28;;;1.90;;
58310;SDS011;45001;52.218;5.154;2022-07-18T08:22:36;4.22;;;2.38;;
58310;SDS011;45001;52.218;5.154;2022-07-18T08:25:16;4.68;;;1.90;;
58310;SDS011;45001;52.218;5.154;2022-07-18T08:27:43;3.05;;;1.52;;
58310;SDS011;45001;52.218;5.154;2022-07-18T08:30:08;3.58;;;1.85;;
58310;SDS011;45001;52.218;5.154;2022-07-18T08:32:34;3.92;;;1.50;;
58310;SDS011;45001;52.218;5.154;2022-07-18T08:34:59;4.47;;;1.60;;
58310;SDS011;45001;52.218;5.154;2022-07-18T08:37:25;4.00;;;1.53;;
58310;SDS011;45001;52.218;5.154;2022-07-18T08:39:50;2.67;;;1.60;;
58310;SDS011;45001;52.218;5.154;2022-07-18T08:42:15;4.32;;;1.52;;
58310;SDS011;45001;52.218;5.154;2022-07-18T08:44:43;3.55;;;1.60;;
58310;SDS011;45001;52.218;5.154;2022-07-18T08:47:12;3.05;;;1.65;;
58310;SDS011;45001;52.218;5.154;2022-07-18T08:49:41;3.75;;;1.77;;
58310;SDS011;45001;52.218;5.154;2022-07-18T08:52:07;3.63;;;1.60;;
58310;SDS011;45001;52.218;5.154;2022-07-18T08:54:32;3.50;;;2.00;;
58310;SDS011;45001;52.218;5.154;2022-07-18T08:56:58;4.30;;;1.40;;
58310;SDS011;45001;52.218;5.154;2022-07-18T08:59:23;4.60;;;1.70;;
58310;SDS011;45001;52.218;5.154;2022-07-18T09:01:48;3.00;;;1.55;;
58310;SDS011;45001;52.218;5.154;2022-07-18T09:04:30;3.47;;;1.60;;
58310;SDS011;45001;52.218;5.154;2022-07-18T09:07:03;2.30;;;1.40;;
58310;SDS011;45001;52.218;5.154;2022-07-18T09:09:29;4.15;;;1.55;;
58310;SDS011;45001;52.218;5.154;2022-07-18T09:11:56;3.40;;;1.45;;
58310;SDS011;45001;52.218;5.154;2022-07-18T09:14:42;4.22;;;1.50;;
58310;SDS011;45001;52.218;5.154;2022-07-18T09:17:30;2.67;;;1.30;;
58310;SDS011;45001;52.218;5.154;2022-07-18T09:20:04;4.00;;;1.92;;
58310;SDS011;45001;52.218;5.154;2022-07-18T09:22:36;2.50;;;1.38;;
58310;SDS011;45001;52.218;5.154;2022-07-18T09:27:38;2.92;;;2.00;;
58310;SDS011;45001;52.218;5.154;2022-07-18T09:30:08;3.38;;;1.35;;
58310;SDS011;45001;52.218;5.154;2022-07-18T09:35:29;4.10;;;1.45;;
58310;SDS011;45001;52.218;5.154;2022-07-18T09:38:08;3.80;;;1.70;;
58310;SDS011;45001;52.218;5.154;2022-07-18T09:40:36;4.28;;;1.30;;
58310;SDS011;45001;52.218;5.154;2022-07-18T09:43:12;2.10;;;1.33;;
58310;SDS011;45001;52.218;5.154;2022-07-18T09:45:47;2.50;;;1.60;;
58310;SDS011;45001;52.218;5.154;2022-07-18T09:48:15;2.50;;;1.27;;
58310;SDS011;45001;52.218;5.154;2022-07-18T09:51:03;3.75;;;1.48;;
58310;SDS011;45001;52.218;5.154;2022-07-18T09:53:32;4.93;;;1.40;;
58310;SDS011;45001;52.218;5.154;2022-07-18T09:56:14;3.85;;;1.50;;
58310;SDS011;45001;52.218;5.154;2022-07-18T09:58:54;4.85;;;1.35;;
58310;SDS011;45001;52.218;5.154;2022-07-18T10:01:20;3.28;;;1.48;;
58310;SDS011;45001;52.218;5.154;2022-07-18T10:03:47;3.10;;;1.13;;
58310;SDS011;45001;52.218;5.154;2022-07-18T10:06:16;3.63;;;1.65;;
58310;SDS011;45001;52.218;5.154;2022-07-18T10:08:43;2.97;;;1.40;;
58310;SDS011;45001;52.218;5.154;2022-07-18T10:11:08;2.92;;;1.25;;
58310;SDS011;45001;52.218;5.154;2022-07-18T10:13:35;2.65;;;1.40;;
58310;SDS011;45001;52.218;5.154;2022-07-18T10:16:02;3.45;;;1.20;;
58310;SDS011;45001;52.218;5.154;2022-07-18T10:18:32;2.58;;;1.13;;
58310;SDS011;45001;52.218;5.154;2022-07-18T10:23:29;3.85;;;2.10;;
58310;SDS011;45001;52.218;5.154;2022-07-18T10:31:21;2.15;;;1.10;;
58310;SDS011;45001;52.218;5.154;2022-07-18T10:36:33;3.33;;;1.23;;
58310;SDS011;45001;52.218;5.154;2022-07-18T10:39:06;2.70;;;1.38;;
58310;SDS011;45001;52.218;5.154;2022-07-18T10:57:20;3.28;;;1.30;;
58310;SDS011;45001;52.218;5.154;2022-07-18T11:03:03;3.80;;;1.40;;
58310;SDS011;45001;52.218;5.154;2022-07-18T11:15:54;2.75;;;1.40;;
58310;SDS011;45001;52.218;5.154;2022-07-18T11:18:31;2.90;;;1.45;;
58310;SDS011;45001;52.218;5.154;2022-07-18T11:20:57;2.38;;;1.42;;
58310;SDS011;45001;52.218;5.154;2022-07-18T11:23:26;2.10;;;1.30;;
58310;SDS011;45001;52.218;5.154;2022-07-18T11:25:55;2.65;;;1.27;;
58310;SDS011;45001;52.218;5.154;2022-07-18T11:28:22;2.17;;;1.30;;
58310;SDS011;45001;52.218;5.154;2022-07-18T11:31:04;2.25;;;1.10;;
58310;SDS011;45001;52.218;5.154;2022-07-18T11:33:37;3.15;;;1.23;;
58310;SDS011;45001;52.218;5.154;2022-07-18T11:36:14;2.40;;;1.35;;
58310;SDS011;45001;52.218;5.154;2022-07-18T11:38:47;1.80;;;1.27;;
58310;SDS011;45001;52.218;5.154;2022-07-18T11:41:17;2.42;;;1.25;;
58310;SDS011;45001;52.218;5.154;2022-07-18T11:43:47;3.08;;;1.40;;
58310;SDS011;45001;52.218;5.154;2022-07-18T11:46:16;1.60;;;1.10;;
58310;SDS011;45001;52.218;5.154;2022-07-18T11:48:47;3.13;;;1.30;;
58310;SDS011;45001;52.218;5.154;2022-07-18T11:51:14;3.15;;;1.30;;
58310;SDS011;45001;52.218;5.154;2022-07-18T11:53:42;3.20;;;1.25;;
58310;SDS011;45001;52.218;5.154;2022-07-18T11:56:11;2.38;;;1.35;;
58310;SDS011;45001;52.218;5.154;2022-07-18T11:58:37;2.00;;;1.13;;
58310;SDS011;45001;52.218;5.154;2022-07-18T12:01:04;2.53;;;1.25;;
58310;SDS011;45001;52.218;5.154;2022-07-18T12:03:30;2.10;;;1.20;;
58310;SDS011;45001;52.218;5.154;2022-07-18T12:05:56;3.92;;;1.35;;
58310;SDS011;45001;52.218;5.154;2022-07-18T12:08:34;2.13;;;1.17;;
58310;SDS011;45001;52.218;5.154;2022-07-18T12:11:12;3.58;;;1.42;;
58310;SDS011;45001;52.218;5.154;2022-07-18T12:13:48;2.67;;;1.30;;
58310;SDS011;45001;52.218;5.154;2022-07-18T12:16:24;2.35;;;1.15;;
58310;SDS011;45001;52.218;5.154;2022-07-18T12:18:50;2.55;;;1.30;;
58310;SDS011;45001;52.218;5.154;2022-07-18T12:21:16;1.38;;;1.10;;
58310;SDS011;45001;52.218;5.154;2022-07-18T12:23:45;1.85;;;1.20;;
58310;SDS011;45001;52.218;5.154;2022-07-18T12:26:25;2.72;;;1.20;;
58310;SDS011;45001;52.218;5.154;2022-07-18T12:29:05;2.28;;;1.30;;
58310;SDS011;45001;52.218;5.154;2022-07-18T12:31:37;2.25;;;1.40;;
58310;SDS011;45001;52.218;5.154;2022-07-18T12:34:13;2.00;;;1.30;;
58310;SDS011;45001;52.218;5.154;2022-07-18T12:36:51;1.80;;;1.20;;
58310;SDS011;45001;52.218;5.154;2022-07-18T12:39:32;3.60;;;1.38;;
58310;SDS011;45001;52.218;5.154;2022-07-18T12:42:00;2.35;;;1.38;;
58310;SDS011;45001;52.218;5.154;2022-07-18T12:48:20;2.47;;;1.30;;
58310;SDS011;45001;52.218;5.154;2022-07-18T12:50:46;2.35;;;1.10;;
58310;SDS011;45001;52.218;5.154;2022-07-18T12:53:20;1.88;;;1.15;;
58310;SDS011;45001;52.218;5.154;2022-07-18T12:55:46;2.65;;;1.40;;
58310;SDS011;45001;52.218;5.154;2022-07-18T12:58:12;1.90;;;1.15;;
58310;SDS011;45001;52.218;5.154;2022-07-18T13:00:38;2.60;;;1.50;;
58310;SDS011;45001;52.218;5.154;2022-07-18T13:03:06;2.03;;;1.30;;
58310;SDS011;45001;52.218;5.154;2022-07-18T13:05:31;1.58;;;1.10;;
58310;SDS011;45001;52.218;5.154;2022-07-18T13:07:56;2.65;;;1.27;;
58310;SDS011;45001;52.218;5.154;2022-07-18T13:13:11;2.55;;;1.42;;
58310;SDS011;45001;52.218;5.154;2022-07-18T13:15:52;2.95;;;1.33;;
58310;SDS011;45001;52.218;5.154;2022-07-18T13:24:41;3.40;;;1.20;;
58310;SDS011;45001;52.218;5.154;2022-07-18T13:30:20;2.08;;;1.20;;
58310;SDS011;45001;52.218;5.154;2022-07-18T13:44:35;3.03;;;1.40;;
58310;SDS011;45001;52.218;5.154;2022-07-18T13:47:01;1.98;;;1.20;;
58310;SDS011;45001;52.218;5.154;2022-07-18T13:49:26;2.45;;;1.50;;
58310;SDS011;45001;52.218;5.154;2022-07-18T13:51:51;3.17;;;1.65;;
58310;SDS011;45001;52.218;5.154;2022-07-18T13:54:17;1.88;;;1.30;;
58310;SDS011;45001;52.218;5.154;2022-07-18T13:56:43;4.60;;;1.20;;
58310;SDS011;45001;52.218;5.154;2022-07-18T13:59:12;1.67;;;1.30;;
58310;SDS011;45001;52.218;5.154;2022-07-18T14:01:37;2.17;;;1.50;;
58310;SDS011;45001;52.218;5.154;2022-07-18T14:04:03;2.20;;;1.60;;
58310;SDS011;45001;52.218;5.154;2022-07-18T14:06:29;2.35;;;1.40;;
58310;SDS011;45001;52.218;5.154;2022-07-18T14:08:54;2.78;;;1.50;;
58310;SDS011;45001;52.218;5.154;2022-07-18T14:11:19;2.20;;;1.30;;
58310;SDS011;45001;52.218;5.154;2022-07-18T14:13:45;2.42;;;1.20;;
58310;SDS011;45001;52.218;5.154;2022-07-18T14:16:11;2.30;;;1.27;;
58310;SDS011;45001;52.218;5.154;2022-07-18T14:18:37;2.83;;;1.60;;
58310;SDS011;45001;52.218;5.154;2022-07-18T14:21:02;2.83;;;1.48;;
58310;SDS011;45001;52.218;5.154;2022-07-18T14:23:31;2.40;;;1.53;;
58310;SDS011;45001;52.218;5.154;2022-07-18T14:25:56;3.00;;;1.70;;
58310;SDS011;45001;52.218;5.154;2022-07-18T14:28:22;2.33;;;1.40;;
58310;SDS011;45001;52.218;5.154;2022-07-18T14:30:47;2.22;;;1.23;;
58310;SDS011;45001;52.218;5.154;2022-07-18T14:33:12;2.90;;;1.50;;
58310;SDS011;45001;52.218;5.154;2022-07-18T14:35:38;1.90;;;1.40;;
58310;SDS011;45001;52.218;5.154;2022-07-18T14:38:03;2.53;;;1.40;;
58310;SDS011;45001;52.218;5.154;2022-07-18T14:40:29;2.55;;;1.30;;
58310;SDS011;45001;52.218;5.154;2022-07-18T14:42:54;1.63;;;1.25;;
58310;SDS011;45001;52.218;5.154;2022-07-18T14:45:20;2.72;;;1.20;;
58310;SDS011;45001;52.218;5.154;2022-07-18T14:47:45;2.28;;;1.20;;
58310;SDS011;45001;52.218;5.154;2022-07-18T14:50:10;2.35;;;1.30;;
58310;SDS011;45001;52.218;5.154;2022-07-18T14:52:36;2.78;;;1.30;;
58310;SDS011;45001;52.218;5.154;2022-07-18T14:55:04;2.28;;;1.40;;
58310;SDS011;45001;52.218;5.154;2022-07-18T14:57:30;2.72;;;1.23;;
58310;SDS011;45001;52.218;5.154;2022-07-18T14:59:56;1.98;;;1.38;;
58310;SDS011;45001;52.218;5.154;2022-07-18T15:02:22;2.63;;;1.63;;
58310;SDS011;45001;52.218;5.154;2022-07-18T15:04:47;2.72;;;1.35;;
58310;SDS011;45001;52.218;5.154;2022-07-18T15:07:13;2.50;;;1.20;;
58310;SDS011;45001;52.218;5.154;2022-07-18T15:09:38;2.35;;;1.90;;
58310;SDS011;45001;52.218;5.154;2022-07-18T15:12:04;2.70;;;1.60;;
58310;SDS011;45001;52.218;5.154;2022-07-18T15:14:29;2.08;;;1.48;;
58310;SDS011;45001;52.218;5.154;2022-07-18T15:16:55;2.40;;;1.50;;
58310;SDS011;45001;52.218;5.154;2022-07-18T15:19:20;2.40;;;1.55;;
58310;SDS011;45001;52.218;5.154;2022-07-18T15:21:45;2.30;;;1.30;;
58310;SDS011;45001;52.218;5.154;2022-07-18T15:24:11;2.03;;;1.33;;
58310;SDS011;45001;52.218;5.154;2022-07-18T15:26:36;2.30;;;1.40;;
58310;SDS011;45001;52.218;5.154;2022-07-18T15:29:01;2.33;;;1.40;;
58310;SDS011;45001;52.218;5.154;2022-07-18T15:31:27;2.10;;;1.50;;
58310;SDS011;45001;52.218;5.154;2022-07-18T15:33:52;2.33;;;1.00;;
58310;SDS011;45001;52.218;5.154;2022-07-18T15:36:18;3.45;;;1.63;;
58310;SDS011;45001;52.218;5.154;2022-07-18T15:38:43;1.73;;;1.40;;
58310;SDS011;45001;52.218;5.154;2022-07-18T15:41:09;3.15;;;1.42;;
58310;SDS011;45001;52.218;5.154;2022-07-18T15:43:36;2.55;;;1.40;;
58310;SDS011;45001;52.218;5.154;2022-07-18T15:46:02;2.22;;;1.52;;
58310;SDS011;45001;52.218;5.154;2022-07-18T15:48:28;2.63;;;1.38;;
58310;SDS011;45001;52.218;5.154;2022-07-18T15:50:54;2.33;;;1.40;;
58310;SDS011;45001;52.218;5.154;2022-07-18T15:53:19;2.13;;;1.20;;
58310;SDS011;45001;52.218;5.154;2022-07-18T15:55:44;2.58;;;1.60;;
58310;SDS011;45001;52.218;5.154;2022-07-18T15:58:10;2.40;;;1.33;;
58310;SDS011;45001;52.218;5.154;2022-07-18T16:00:35;2.72;;;1.50;;